Latest Weather Observations for Mount Gambier

IDS60801

Issued at 6:31 am CST Friday 1 July 2016 (issued every 30 minutes, with the page automatically refreshed every 10 minutes)

About weather observations | Map of weather stations | Latest weather observations for SA | Other Formats
Station Details ID: 026021 Name: MOUNT GAMBIER AERO Lat: -37.75 Lon: 140.77 Height: 63.0 m
Data from the previous 72 hours. | See also: Recent months at Mount Gambier
Date/Time
CST
Temp
°C
App
Temp
°C
Dew
Point
°C
Rel
Hum
%
Delta-T
°C
Wind Press
QNH
hPa
Press
MSL
hPa
Rain since
9am
mm
Dir  Spd
km/h
Gust
km/h
Spd
kts
Gust
kts
01/06:30am 7.7 4.0 4.2 78 1.5 WNW 13 19 7 10 1020.1 1020.2 11.4
01/06:00am 6.3 2.6 4.7 89 0.7 NW 13 13 7 7 1019.7 1019.8 11.4
01/05:30am 7.1 3.8 4.8 85 1.0 NW 11 13 6 7 1019.3 1019.4 11.4
01/05:00am 8.0 4.3 4.3 77 1.6 W 13 15 7 8 1019.0 1019.1 11.4
01/04:30am 7.7 3.9 3.7 76 1.7 W 13 13 7 7 1018.7 1018.8 11.4
01/04:00am 8.3 4.1 3.9 74 1.9 W 15 19 8 10 1018.3 1018.4 11.4
01/03:30am 9.5 3.5 3.3 65 2.7 WSW 24 35 13 19 1017.9 1018.0 11.4
01/03:00am 8.6 3.8 2.4 65 2.6 WSW 17 20 9 11 1018.0 1018.1 11.4
01/02:30am 9.1 4.6 4.3 72 2.1 W 17 24 9 13 1017.6 1017.7 11.4
01/02:00am 9.2 4.2 4.7 73 2.0 WSW 20 26 11 14 1017.3 1017.4 11.4
01/01:30am 9.2 3.9 5.0 75 1.9 W 22 32 12 17 1016.8 1016.9 11.4
01/01:00am 9.8 3.7 4.7 70 2.3 WSW 26 32 14 17 1016.4 1016.5 11.4
01/12:30am 9.6 4.0 5.2 74 2.0 WSW 24 35 13 19 1016.0 1016.1 11.4
01/12:00am 9.1 4.5 6.7 85 1.1 SW 20 30 11 16 1015.8 1015.9 11.4
 
Date/Time
CST
Temp
°C
App
Temp
°C
Dew
Point
°C
Rel
Hum
%
Delta-T
°C
Wind Press
QNH
hPa
Press
MSL
hPa
Rain since
9am
mm
Dir  Spd
km/h
Gust
km/h
Spd
kts
Gust
kts
30/11:30pm 8.8 4.4 7.3 90 0.7 SW 20 28 11 15 1015.5 1015.6 11.4
30/11:17pm 8.9 3.4 7.4 90 0.7 WSW 26 37 14 20 1015.4 1015.5 11.4
30/11:00pm 8.8 2.6 7.8 93 0.5 WSW 30 43 16 23 1015.1 1015.2 11.2
30/10:47pm 9.0 3.5 7.7 91 0.6 WSW 26 35 14 19 1014.9 1015.0 11.2
30/10:44pm 9.0 3.6 8.0 93 0.5 WSW 26 35 14 19 1014.9 1015.0 11.2
30/10:30pm 8.9 3.1 8.1 95 0.4 WSW 28 37 15 20 1014.6 1014.7 11.2
30/10:24pm 8.9 3.5 7.9 93 0.5 WSW 26 35 14 19 1014.5 1014.6 11.2
30/10:06pm 8.8 2.2 7.8 93 0.5 WSW 32 44 17 24 1014.0 1014.1 11.0
30/10:00pm 8.8 2.0 7.8 93 0.5 WSW 33 46 18 25 1013.9 1014.0 11.0
30/09:44pm 9.2 2.7 8.0 92 0.6 WSW 32 52 17 28 1013.8 1013.9 10.4
30/09:30pm 9.2 2.5 8.2 93 0.5 WSW 33 50 18 27 1013.4 1013.5 9.8
30/09:24pm 9.5 2.8 8.1 91 0.7 WSW 33 50 18 27 1013.4 1013.5 9.6
30/09:22pm 9.6 3.0 7.9 89 0.8 WSW 32 50 17 27 1013.3 1013.4 9.4
30/09:00pm 9.8 2.2 7.7 87 1.0 WSW 37 48 20 26 1012.6 1012.7 9.0
30/08:36pm 9.7 2.2 7.8 88 0.9 WSW 37 56 20 30 1012.0 1012.0 9.0
30/08:30pm 9.7 2.2 8.0 89 0.8 W 37 54 20 29 1011.8 1011.8 9.0
30/08:10pm 9.6 1.3 7.7 88 0.9 WSW 41 59 22 32 1011.5 1011.5 9.0
30/08:00pm 9.7 1.4 7.6 87 1.0 WSW 41 54 22 29 1011.3 1011.3 9.0
30/07:41pm 9.7 1.0 7.6 87 1.0 WSW 43 65 23 35 1010.9 1010.9 8.6
30/07:30pm 9.8 1.1 7.5 85 1.1 WSW 43 61 23 33 1010.3 1010.4 8.4
30/07:23pm 9.7 -0.1 7.2 84 1.2 WSW 48 61 26 33 1010.2 1010.3 8.4
30/07:05pm 9.4 1.0 7.5 88 0.9 W 41 59 22 32 1009.8 1009.9 8.4
30/07:00pm 9.7 0.9 7.2 84 1.2 W 43 65 23 35 1009.7 1009.8 8.2
30/06:58pm 9.8 0.7 6.8 81 1.4 W 44 65 24 35 1009.6 1009.7 8.0
30/06:47pm 9.6 -0.6 6.8 83 1.3 W 50 70 27 38 1009.4 1009.5 8.0
30/06:30pm 9.8 0.2 6.4 79 1.6 W 46 65 25 35 1008.9 1009.0 8.0
30/06:01pm 10.2 0.4 5.2 71 2.3 W 46 72 25 39 1008.3 1008.4 8.0
30/06:00pm 10.2 0.4 5.2 71 2.3 W 46 59 25 32 1008.3 1008.4 8.0
30/05:30pm 9.8 1.4 5.4 74 2.0 W 39 57 21 31 1007.9 1008.0 8.0
30/05:00pm 10.0 0.6 4.2 67 2.6 W 43 65 23 35 1007.4 1007.5 8.0
30/04:30pm 9.0 -0.6 3.5 68 2.4 W 43 67 23 36 1007.0 1007.1 8.0
30/04:26pm 8.8 -0.3 3.8 71 2.2 W 41 67 22 36 1007.1 1007.2 8.0
30/04:19pm 9.4 2.2 5.2 75 1.9 W 32 50 17 27 1006.9 1007.0 8.0
30/04:00pm 9.7 1.8 4.3 69 2.4 W 35 48 19 26 1006.8 1006.9 7.8
30/03:35pm 8.9 2.6 5.6 80 1.5 WNW 28 48 15 26 1006.7 1006.8 7.8
30/03:30pm 8.9 3.7 5.6 80 1.5 WNW 22 35 12 19 1006.7 1006.8 7.2
30/03:23pm 8.7 3.2 5.9 82 1.3 NW 24 35 13 19 1006.7 1006.8 7.2
30/03:00pm 9.4 2.3 5.5 76 1.8 NW 32 44 17 24 1006.2 1006.3 6.2
30/02:30pm 8.4 1.8 4.1 74 1.9 WNW 28 35 15 19 1006.2 1006.3 6.2
30/02:00pm 8.7 -0.2 4.9 77 1.7 WNW 41 67 22 36 1006.3 1006.4 6.2
30/01:47pm 8.6 2.0 6.2 85 1.1 WNW 30 48 16 26 1006.4 1006.5 6.2
30/01:30pm 8.2 0.9 5.3 82 1.3 WNW 33 46 18 25 1006.0 1006.1 6.2
30/01:16pm 7.5 -2.2 5.7 88 0.8 W 46 70 25 38 1006.2 1006.3 6.0
30/01:11pm 7.5 -3.0 5.5 87 0.9 W 50 76 27 41 1006.3 1006.4 5.8
30/01:09pm 7.7 -2.0 5.9 88 0.8 WNW 46 76 25 41 1006.4 1006.5 5.8
30/01:06pm 8.3 -0.1 5.7 84 1.2 WNW 39 76 21 41 1006.3 1006.4 5.6
30/01:05pm 8.5 0.9 5.6 82 1.3 WNW 35 69 19 37 1006.1 1006.2 5.6
30/01:00pm 10.3 4.2 6.7 78 1.7 WNW 28 44 15 24 1005.6 1005.7 5.6
30/12:30pm 8.5 0.4 5.2 80 1.5 WNW 37 70 20 38 1005.7 1005.8 5.6
30/12:24pm 8.2 1.4 5.3 82 1.3 WNW 30 70 16 38 1005.9 1006.0 5.6
30/12:06pm 7.9 2.1 6.4 90 0.7 WNW 26 33 14 18 1005.9 1006.0 5.6
30/12:00pm 7.7 1.4 5.9 88 0.8 WNW 28 41 15 22 1006.1 1006.2 5.6
30/11:52am 7.9 -0.4 6.2 89 0.8 W 39 63 21 34 1006.4 1006.5 5.6
30/11:46am 8.7 2.6 6.8 88 0.9 WNW 28 56 15 30 1006.6 1006.7 5.2
30/11:30am 8.8 4.3 6.9 88 0.9 WNW 20 32 11 17 1006.2 1006.3 4.8
30/11:00am 9.0 2.3 7.5 90 0.7 NW 32 48 17 26 1006.1 1006.2 4.4
30/10:30am 9.0 3.1 7.5 90 0.7 WNW 28 39 15 21 1005.9 1006.0 4.0
30/10:17am 9.0 1.4 7.7 91 0.6 W 37 48 20 26 1006.1 1006.2 4.0
30/10:09am 8.9 1.1 8.1 95 0.4 W 39 57 21 31 1006.2 1006.3 3.8
30/10:00am 9.1 1.6 8.1 93 0.5 WNW 37 61 20 33 1006.1 1006.2 3.6
30/09:56am 9.3 3.7 8.9 97 0.2 NW 28 54 15 29 1006.0 1006.1 3.6
30/09:44am 9.7 5.0 9.1 96 0.3 NNW 24 32 13 17 1005.6 1005.7 1.6
30/09:30am 9.6 4.4 9.0 96 0.3 N 26 41 14 22 1004.7 1004.8 0.0
30/09:00am 9.0 3.7 8.6 97 0.2 N 26 37 14 20 1005.1 1005.2 15.6
30/08:30am 8.4 3.8 8.2 99 0.1 N 22 33 12 18 1005.0 1005.1 15.6
30/08:00am 8.1 3.1 7.9 99 0.1 NNE 24 33 13 18 1005.2 1005.3 15.4
30/07:45am 8.2 3.2 8.0 99 0.1 NNE 24 32 13 17 1005.4 1005.5 14.8
30/07:30am 8.2 3.9 7.8 97 0.2 NNE 20 26 11 14 1005.5 1005.6 14.6
30/07:00am 8.3 2.0 7.5 95 0.4 N 30 44 16 24 1005.7 1005.8 13.4
30/06:44am 8.2 2.7 7.4 95 0.4 NNE 26 41 14 22 1005.6 1005.7 11.8
30/06:30am 8.0 4.2 7.4 96 0.3 NNW 17 22 9 12 1007.0 1007.1 10.2
30/06:00am 8.5 4.6 7.0 90 0.7 N 17 28 9 15 1006.8 1006.9 7.0
30/05:52am 8.3 3.9 7.2 93 0.5 N 20 30 11 16 1006.8 1006.9 6.6
30/05:31am 8.5 4.1 7.2 91 0.6 NW 20 33 11 18 1007.7 1007.8 4.4
30/05:30am 8.5 4.1 7.2 91 0.6 NW 20 33 11 18 1007.8 1007.9 4.0
30/05:00am 8.4 1.6 6.7 89 0.8 N 32 43 17 23 1006.3 1006.4 2.2
30/04:33am 8.5 2.1 6.8 89 0.8 N 30 48 16 26 1006.4 1006.5 2.2
30/04:30am 8.5 2.1 6.8 89 0.8 N 30 41 16 22 1006.4 1006.5 2.2
30/04:00am 8.2 1.7 6.7 90 0.7 N 30 39 16 21 1007.0 1007.1 2.2
30/03:30am 8.3 2.2 6.6 89 0.8 N 28 39 15 21 1007.6 1007.7 2.0
30/03:00am 8.4 2.3 6.5 88 0.9 N 28 35 15 19 1008.2 1008.3 2.0
30/02:30am 8.4 3.4 6.5 88 0.9 N 22 32 12 17 1008.5 1008.6 1.8
30/02:00am 8.5 3.5 6.6 88 0.9 N 22 32 12 17 1009.3 1009.4 1.4
30/01:30am 8.7 3.2 6.1 84 1.2 N 24 39 13 21 1009.8 1009.9 0.4
30/01:00am 10.0 3.8 4.4 68 2.5 N 26 39 14 21 1010.0 1010.1 0.0
30/12:30am 9.8 3.2 4.4 69 2.4 N 28 41 15 22 1010.3 1010.4 0.0
30/12:00am 10.0 3.4 4.2 67 2.6 N 28 37 15 20 1010.5 1010.6 0.0
 
Date/Time
CST
Temp
°C
App
Temp
°C
Dew
Point
°C
Rel
Hum
%
Delta-T
°C
Wind Press
QNH
hPa
Press
MSL
hPa
Rain since
9am
mm
Dir  Spd
km/h
Gust
km/h
Spd
kts
Gust
kts
29/11:30pm 10.3 4.0 4.0 65 2.8 N 26 39 14 21 1011.8 1011.8 0.0
29/11:00pm 10.3 3.7 4.0 65 2.8 N 28 39 15 21 1012.2 1012.3 0.0
29/10:30pm 10.3 2.7 4.0 65 2.8 N 33 52 18 28 1012.2 1012.3 0.0
29/10:25pm 10.3 3.0 4.3 66 2.7 N 32 52 17 28 1012.3 1012.4 0.0
29/10:00pm 10.3 3.3 4.3 66 2.7 N 30 41 16 22 1013.0 1013.1 0.0
29/09:42pm 10.4 3.5 4.4 66 2.7 N 30 48 16 26 1013.2 1013.3 0.0
29/09:30pm 10.4 3.4 4.1 65 2.8 N 30 41 16 22 1013.5 1013.6 0.0
29/09:00pm 10.7 4.0 3.7 62 3.1 N 28 39 15 21 1014.0 1014.1 0.0
29/08:30pm 10.6 3.5 3.6 62 3.1 N 30 46 16 25 1014.5 1014.6 0.0
29/08:00pm 10.7 3.6 3.4 60 3.2 N 30 46 16 25 1014.8 1014.9 0.0
29/07:30pm 10.8 4.5 3.8 62 3.1 N 26 35 14 19 1015.4 1015.5 0.0
29/07:00pm 11.0 5.4 3.2 58 3.4 N 22 33 12 18 1015.7 1015.8 0.0
29/06:30pm 11.0 5.1 3.8 61 3.2 N 24 35 13 19 1015.8 1015.9 0.0
29/06:00pm 11.0 5.9 4.1 62 3.1 N 20 30 11 16 1015.9 1016.0 0.0
29/05:30pm 11.3 5.7 3.6 59 3.4 N 22 35 12 19 1016.0 1016.1 0.0
29/05:00pm 11.3 4.6 3.9 60 3.3 N 28 37 15 20 1015.8 1015.9 0.0
29/04:30pm 11.5 5.3 4.4 61 3.2 N 26 35 14 19 1016.2 1016.3 0.0
29/04:00pm 11.9 6.2 4.9 62 3.2 N 24 32 13 17 1016.5 1016.6 0.0
29/03:30pm 12.1 6.4 4.9 61 3.3 N 24 35 13 19 1016.8 1016.9 0.0
29/03:00pm 12.5 7.1 4.6 58 3.6 N 22 35 12 19 1017.2 1017.3 0.0
29/02:43pm 12.7 6.0 3.8 54 4.0 N 28 46 15 25 1017.3 1017.4 0.0
29/02:30pm 12.7 6.9 4.4 57 3.8 N 24 35 13 19 1017.5 1017.6 0.0
29/02:00pm 12.9 6.5 5.1 59 3.6 N 28 44 15 24 1018.1 1018.2 0.0
29/01:30pm 13.4 7.9 6.0 61 3.5 N 24 37 13 20 1018.5 1018.6 0.0
29/01:13pm 12.9 6.5 5.4 60 3.5 N 28 48 15 26 1018.8 1018.9 0.0
29/01:00pm 13.6 6.6 5.8 59 3.7 N 32 46 17 25 1019.0 1019.1 0.0
29/12:30pm 13.7 8.8 6.9 63 3.3 N 22 33 12 18 1019.9 1020.0 0.0
29/12:00pm 12.8 6.7 6.5 65 3.0 N 28 39 15 21 1020.7 1020.8 0.0
29/11:30am 12.7 8.2 6.9 68 2.8 N 20 33 11 18 1021.4 1021.5 0.0
29/11:00am 12.7 8.3 7.3 69 2.6 N 20 30 11 16 1022.2 1022.3 0.0
29/10:30am 11.1 6.9 7.3 77 1.8 N 19 28 10 15 1022.9 1023.0 0.0
29/10:00am 10.0 6.1 7.0 81 1.4 N 17 26 9 14 1023.2 1023.3 0.0
29/09:30am 9.6 5.2 6.6 81 1.4 N 19 26 10 14 1023.6 1023.7 0.0
29/09:00am 8.4 4.3 6.4 87 0.9 N 17 22 9 12 1023.7 1023.8 5.0
29/08:30am 6.9 2.7 5.8 93 0.5 N 17 22 9 12 1023.8 1023.9 5.0
29/08:00am 6.5 3.0 5.6 94 0.4 N 13 17 7 9 1024.0 1024.1 5.0
29/07:30am 6.5 2.6 5.4 93 0.5 N 15 20 8 11 1024.0 1024.1 5.0
29/07:00am 6.4 2.5 5.5 94 0.4 N 15 22 8 12 1024.0 1024.1 5.0
29/06:30am 6.5 2.3 5.6 94 0.4 N 17 22 9 12 1023.9 1024.0 5.0
29/06:00am 6.7 2.5 5.8 94 0.4 N 17 20 9 11 1023.7 1023.8 4.8
29/05:30am 6.7 3.3 5.8 94 0.4 N 13 17 7 9 1023.8 1023.9 4.8
29/05:00am 6.9 3.5 6.0 94 0.4 N 13 17 7 9 1023.6 1023.7 4.8
29/04:30am 7.4 4.2 6.7 95 0.3 N 13 15 7 8 1023.6 1023.7 4.8
29/04:00am 8.2 5.2 7.8 97 0.2 N 13 15 7 8 1023.6 1023.7 4.8
29/03:30am 8.9 5.3 8.5 97 0.2 N 17 20 9 11 1023.6 1023.7 4.8
29/03:00am 9.2 6.1 8.8 97 0.2 N 15 19 8 10 1023.9 1024.0 4.8
29/02:30am 9.9 6.6 9.5 97 0.2 N 17 22 9 12 1023.9 1024.0 4.8
29/02:00am 9.9 6.6 9.5 97 0.2 N 17 22 9 12 1024.0 1024.1 4.8
29/01:33am 10.0 7.5 9.6 97 0.2 N 13 22 7 12 1024.0 1024.1 4.8
29/01:30am 9.9 7.3 9.5 97 0.2 NNW 13 22 7 12 1024.0 1024.1 4.8
29/01:11am 10.1 6.8 9.7 97 0.2 N 17 24 9 13 1024.1 1024.3 4.8
29/01:00am 10.3 7.1 9.9 97 0.2 NNW 17 24 9 13 1024.2 1024.4 4.8
29/12:54am 10.2 7.0 9.8 97 0.2 NNW 17 24 9 13 1024.3 1024.5 4.8
29/12:49am 10.2 7.0 9.8 97 0.2 NNW 17 24 9 13 1024.3 1024.5 4.8
29/12:30am 10.0 7.5 9.6 97 0.2 N 13 15 7 8 1024.4 1024.6 4.8
29/12:00am 10.6 7.9 10.2 97 0.2 N 15 19 8 10 1024.5 1024.7 4.8
 
Date/Time
CST
Temp
°C
App
Temp
°C
Dew
Point
°C
Rel
Hum
%
Delta-T
°C
Wind Press
QNH
hPa
Press
MSL
hPa
Rain since
9am
mm
Dir  Spd
km/h
Gust
km/h
Spd
kts
Gust
kts
28/11:30pm 10.6 7.9 10.4 99 0.1 N 15 19 8 10 1024.6 1024.8 4.8
28/11:00pm 10.7 8.0 10.3 97 0.2 N 15 19 8 10 1024.6 1024.8 4.8
28/10:30pm 10.9 7.8 10.3 96 0.3 N 17 20 9 11 1024.6 1024.8 4.6
28/10:00pm 10.9 7.8 10.3 96 0.3 N 17 22 9 12 1024.6 1024.8 4.6
28/09:30pm 10.7 7.6 10.3 97 0.2 N 17 20 9 11 1024.5 1024.7 4.6
28/09:00pm 10.9 8.6 10.3 96 0.3 N 13 17 7 9 1024.8 1025.0 4.6
28/08:30pm 10.7 8.4 10.3 97 0.2 N 13 17 7 9 1024.6 1024.8 4.6
28/08:04pm 11.0 8.7 10.4 96 0.3 NNW 13 17 7 9 1024.8 1025.0 4.6
28/08:00pm 11.0 8.4 10.6 97 0.2 NNW 15 19 8 10 1024.8 1025.0 4.6
28/07:57pm 11.1 8.4 10.5 96 0.3 NNW 15 19 8 10 1024.7 1024.9 4.6
28/07:40pm 11.3 8.0 10.9 97 0.2 NW 19 30 10 16 1024.8 1025.0 4.6
28/07:33pm 11.3 8.8 11.1 99 0.1 NNW 15 24 8 13 1024.6 1024.8 4.4
28/07:30pm 11.4 8.9 11.0 97 0.2 NNW 15 19 8 10 1024.6 1024.8 4.4
28/07:11pm 11.4 9.3 11.0 97 0.2 NNW 13 19 7 10 1024.4 1024.6 4.0
28/07:00pm 11.4 9.3 11.0 97 0.2 NNW 13 17 7 9 1024.3 1024.5 3.8
28/06:30pm 11.4 8.9 11.0 97 0.2 NNW 15 24 8 13 1024.1 1024.3 3.4
28/06:00pm 11.3 8.3 10.5 95 0.4 NNW 17 22 9 12 1023.9 1024.0 3.0
28/05:30pm 11.7 9.5 10.9 95 0.4 NNW 13 19 7 10 1023.6 1023.7 3.0
28/05:11pm 11.8 10.0 11.0 95 0.4 NNW 11 13 6 7 1023.5 1023.6 2.6
28/05:08pm 11.8 10.0 11.0 95 0.4 NW 11 15 6 8 1023.5 1023.6 2.4
28/05:00pm 11.8 10.0 11.0 95 0.4 NW 11 17 6 9 1023.4 1023.5 2.2
28/04:38pm 12.2 8.8 10.7 90 0.8 WNW 19 24 10 13 1023.4 1023.5 1.0
28/04:30pm 12.5 9.0 10.2 86 1.2 NW 19 24 10 13 1023.4 1023.5 0.8
28/04:00pm 12.8 9.8 10.5 86 1.2 NNW 17 20 9 11 1023.0 1023.1 0.8
28/03:30pm 13.2 10.1 11.5 89 0.9 NW 19 26 10 14 1022.9 1023.0 0.8
28/03:00pm 13.5 8.1 9.6 77 2.0 NW 28 33 15 18 1022.7 1022.8 0.6
28/02:30pm 14.2 11.4 11.2 82 1.6 NW 17 22 9 12 1022.8 1022.9 0.6
28/02:00pm 14.2 11.0 11.4 83 1.5 NW 19 30 10 16 1022.8 1022.9 0.6
28/01:30pm 14.5 11.7 11.5 82 1.6 NNW 17 22 9 12 1022.7 1022.8 0.6
28/01:00pm 13.3 10.4 12.2 93 0.6 NNW 19 28 10 15 1023.0 1023.1 0.6
28/12:30pm 13.7 10.3 10.6 81 1.6 NNW 19 24 10 13 1023.2 1023.3 0.0
28/12:00pm 13.5 9.7 11.0 85 1.3 NNW 22 28 12 15 1023.1 1023.2 0.0
28/11:30am 13.3 10.2 11.6 89 0.9 NNW 19 28 10 15 1023.5 1023.6 0.0
28/11:22am 13.9 10.8 11.7 86 1.2 NNW 19 28 10 15 1023.5 1023.6 0.0
28/11:00am 12.5 8.9 11.9 96 0.3 NNW 22 30 12 16 1023.7 1023.8 0.0
28/10:30am 11.4 8.6 11.2 99 0.1 NNW 17 26 9 14 1023.7 1023.8 0.0
28/10:03am 11.1 8.2 10.9 99 0.1 N 17 26 9 14 1023.7 1023.8 0.0
28/10:00am 10.9 8.0 10.9 100 0.0 NNW 17 26 9 14 1023.7 1023.8 0.0
28/09:30am 10.7 7.7 10.5 99 0.1 N 17 24 9 13 1023.3 1023.4 0.0
28/09:00am 10.2 6.7 10.2 100 0.0 N 19 26 10 14 1023.1 1023.2 2.2
28/08:30am 9.8 6.9 9.8 100 0.0 NNW 15 20 8 11 1023.0 1023.1 2.2
28/08:00am 9.4 5.7 9.4 100 0.0 N 19 26 10 14 1022.6 1022.7 2.2
28/07:30am 9.3 5.5 9.1 99 0.1 NNW 19 28 10 15 1022.2 1022.3 2.2
28/07:00am 9.5 6.1 9.3 99 0.1 NNW 17 22 9 12 1021.7 1021.8 2.2

Other Formats:

Comma delimited format used in spreadsheet applications
http://www.bom.gov.au/fwo/IDS60801/IDS60801.94821.axf

JavaScript Object Notation format (JSON) in row-major order
http://www.bom.gov.au/fwo/IDS60801/IDS60801.94821.json